sensor_id;sensor_type;location;lat;lon;timestamp;P1;durP1;ratioP1;P2;durP2;ratioP2
67819;SDS011;54618;52.018;5.576;2023-08-24T00:00:47;6.88;;;4.05;;
67819;SDS011;54618;52.018;5.576;2023-08-24T00:03:13;7.13;;;3.83;;
67819;SDS011;54618;52.018;5.576;2023-08-24T00:05:38;6.22;;;3.55;;
67819;SDS011;54618;52.018;5.576;2023-08-24T00:08:05;8.63;;;4.10;;
67819;SDS011;54618;52.018;5.576;2023-08-24T00:10:32;8.35;;;3.88;;
67819;SDS011;54618;52.018;5.576;2023-08-24T00:12:58;9.23;;;3.80;;
67819;SDS011;54618;52.018;5.576;2023-08-24T00:15:24;9.43;;;3.90;;
67819;SDS011;54618;52.018;5.576;2023-08-24T00:17:50;7.68;;;4.25;;
67819;SDS011;54618;52.018;5.576;2023-08-24T00:20:15;9.60;;;3.95;;
67819;SDS011;54618;52.018;5.576;2023-08-24T00:22:41;7.70;;;4.25;;
67819;SDS011;54618;52.018;5.576;2023-08-24T00:25:10;7.72;;;4.45;;
67819;SDS011;54618;52.018;5.576;2023-08-24T00:27:39;8.63;;;3.88;;
67819;SDS011;54618;52.018;5.576;2023-08-24T00:30:06;6.60;;;3.95;;
67819;SDS011;54618;52.018;5.576;2023-08-24T00:32:35;6.40;;;3.83;;
67819;SDS011;54618;52.018;5.576;2023-08-24T00:35:02;9.55;;;4.57;;
67819;SDS011;54618;52.018;5.576;2023-08-24T00:37:30;9.18;;;4.28;;
67819;SDS011;54618;52.018;5.576;2023-08-24T00:39:56;8.55;;;3.90;;
67819;SDS011;54618;52.018;5.576;2023-08-24T00:42:24;8.93;;;3.85;;
67819;SDS011;54618;52.018;5.576;2023-08-24T00:44:50;8.02;;;4.18;;
67819;SDS011;54618;52.018;5.576;2023-08-24T00:47:16;6.55;;;3.83;;
67819;SDS011;54618;52.018;5.576;2023-08-24T00:49:42;7.72;;;4.00;;
67819;SDS011;54618;52.018;5.576;2023-08-24T00:52:08;6.22;;;4.10;;
67819;SDS011;54618;52.018;5.576;2023-08-24T00:54:35;7.85;;;4.30;;
67819;SDS011;54618;52.018;5.576;2023-08-24T00:57:06;5.38;;;3.30;;
67819;SDS011;54618;52.018;5.576;2023-08-24T00:59:35;13.15;;;4.93;;
67819;SDS011;54618;52.018;5.576;2023-08-24T01:02:01;7.15;;;3.83;;
67819;SDS011;54618;52.018;5.576;2023-08-24T01:04:27;6.38;;;3.65;;
67819;SDS011;54618;52.018;5.576;2023-08-24T01:06:52;8.90;;;4.15;;
67819;SDS011;54618;52.018;5.576;2023-08-24T01:09:18;6.70;;;3.92;;
67819;SDS011;54618;52.018;5.576;2023-08-24T01:14:30;6.28;;;3.97;;
67819;SDS011;54618;52.018;5.576;2023-08-24T01:19:44;11.57;;;3.90;;
67819;SDS011;54618;52.018;5.576;2023-08-24T01:24:53;11.43;;;4.15;;
67819;SDS011;54618;52.018;5.576;2023-08-24T01:27:25;9.68;;;4.50;;
67819;SDS011;54618;52.018;5.576;2023-08-24T01:29:52;6.95;;;3.95;;
67819;SDS011;54618;52.018;5.576;2023-08-24T01:32:22;7.18;;;4.15;;
67819;SDS011;54618;52.018;5.576;2023-08-24T01:34:47;7.57;;;4.43;;
67819;SDS011;54618;52.018;5.576;2023-08-24T01:37:13;7.45;;;4.20;;
67819;SDS011;54618;52.018;5.576;2023-08-24T01:42:09;9.50;;;4.70;;
67819;SDS011;54618;52.018;5.576;2023-08-24T01:44:38;10.82;;;4.63;;
67819;SDS011;54618;52.018;5.576;2023-08-24T01:47:10;7.35;;;4.03;;
67819;SDS011;54618;52.018;5.576;2023-08-24T01:49:40;7.97;;;4.63;;
67819;SDS011;54618;52.018;5.576;2023-08-24T01:52:06;6.80;;;4.40;;
67819;SDS011;54618;52.018;5.576;2023-08-24T01:54:36;7.40;;;5.00;;
67819;SDS011;54618;52.018;5.576;2023-08-24T01:57:05;7.88;;;4.47;;
67819;SDS011;54618;52.018;5.576;2023-08-24T01:59:31;16.02;;;4.70;;
67819;SDS011;54618;52.018;5.576;2023-08-24T02:01:57;8.65;;;4.50;;
67819;SDS011;54618;52.018;5.576;2023-08-24T02:04:22;7.53;;;4.47;;
67819;SDS011;54618;52.018;5.576;2023-08-24T02:06:48;12.63;;;4.82;;
67819;SDS011;54618;52.018;5.576;2023-08-24T02:09:13;8.15;;;4.28;;
67819;SDS011;54618;52.018;5.576;2023-08-24T02:11:39;8.65;;;4.70;;
67819;SDS011;54618;52.018;5.576;2023-08-24T02:14:04;6.97;;;4.22;;
67819;SDS011;54618;52.018;5.576;2023-08-24T02:16:30;10.02;;;4.57;;
67819;SDS011;54618;52.018;5.576;2023-08-24T02:18:55;12.23;;;4.88;;
67819;SDS011;54618;52.018;5.576;2023-08-24T02:21:21;10.13;;;4.80;;
67819;SDS011;54618;52.018;5.576;2023-08-24T02:23:47;17.50;;;5.10;;
67819;SDS011;54618;52.018;5.576;2023-08-24T02:26:12;9.50;;;4.65;;
67819;SDS011;54618;52.018;5.576;2023-08-24T02:28:38;11.05;;;5.25;;
67819;SDS011;54618;52.018;5.576;2023-08-24T02:31:03;9.02;;;5.10;;
67819;SDS011;54618;52.018;5.576;2023-08-24T02:33:30;9.57;;;5.25;;
67819;SDS011;54618;52.018;5.576;2023-08-24T02:35:56;8.45;;;5.10;;
67819;SDS011;54618;52.018;5.576;2023-08-24T02:38:22;9.88;;;5.30;;
67819;SDS011;54618;52.018;5.576;2023-08-24T02:40:49;8.25;;;4.95;;
67819;SDS011;54618;52.018;5.576;2023-08-24T02:43:14;11.73;;;5.20;;
67819;SDS011;54618;52.018;5.576;2023-08-24T02:45:40;9.13;;;4.30;;
67819;SDS011;54618;52.018;5.576;2023-08-24T02:48:05;8.45;;;5.07;;
67819;SDS011;54618;52.018;5.576;2023-08-24T02:50:31;11.15;;;5.70;;
67819;SDS011;54618;52.018;5.576;2023-08-24T02:52:56;9.93;;;5.00;;
67819;SDS011;54618;52.018;5.576;2023-08-24T02:55:27;11.68;;;5.93;;
67819;SDS011;54618;52.018;5.576;2023-08-24T02:57:53;13.10;;;5.78;;
67819;SDS011;54618;52.018;5.576;2023-08-24T03:00:18;10.50;;;5.75;;
67819;SDS011;54618;52.018;5.576;2023-08-24T03:02:44;8.73;;;5.75;;
67819;SDS011;54618;52.018;5.576;2023-08-24T03:05:09;11.05;;;5.50;;
67819;SDS011;54618;52.018;5.576;2023-08-24T03:07:35;12.10;;;5.45;;
67819;SDS011;54618;52.018;5.576;2023-08-24T03:10:01;10.77;;;5.68;;
67819;SDS011;54618;52.018;5.576;2023-08-24T03:12:26;15.30;;;6.40;;
67819;SDS011;54618;52.018;5.576;2023-08-24T03:14:52;12.07;;;6.03;;
67819;SDS011;54618;52.018;5.576;2023-08-24T03:17:20;12.25;;;6.05;;
67819;SDS011;54618;52.018;5.576;2023-08-24T03:19:46;10.45;;;6.03;;
67819;SDS011;54618;52.018;5.576;2023-08-24T03:22:11;10.80;;;5.97;;
67819;SDS011;54618;52.018;5.576;2023-08-24T03:24:37;8.52;;;5.05;;
67819;SDS011;54618;52.018;5.576;2023-08-24T03:27:03;14.43;;;6.03;;
67819;SDS011;54618;52.018;5.576;2023-08-24T03:29:28;9.32;;;5.50;;
67819;SDS011;54618;52.018;5.576;2023-08-24T03:31:54;13.57;;;6.68;;
67819;SDS011;54618;52.018;5.576;2023-08-24T03:34:20;13.40;;;6.95;;
67819;SDS011;54618;52.018;5.576;2023-08-24T03:36:46;11.75;;;6.88;;
67819;SDS011;54618;52.018;5.576;2023-08-24T03:39:12;11.55;;;7.10;;
67819;SDS011;54618;52.018;5.576;2023-08-24T03:41:40;14.10;;;7.05;;
67819;SDS011;54618;52.018;5.576;2023-08-24T03:44:06;12.48;;;7.40;;
67819;SDS011;54618;52.018;5.576;2023-08-24T03:46:34;14.07;;;7.65;;
67819;SDS011;54618;52.018;5.576;2023-08-24T03:49:00;13.73;;;7.60;;
67819;SDS011;54618;52.018;5.576;2023-08-24T03:51:25;11.52;;;6.85;;
67819;SDS011;54618;52.018;5.576;2023-08-24T03:53:51;17.27;;;8.07;;
67819;SDS011;54618;52.018;5.576;2023-08-24T03:56:16;15.57;;;7.50;;
67819;SDS011;54618;52.018;5.576;2023-08-24T03:58:42;14.57;;;7.88;;
67819;SDS011;54618;52.018;5.576;2023-08-24T04:01:11;11.55;;;7.25;;
67819;SDS011;54618;52.018;5.576;2023-08-24T04:03:40;15.82;;;7.65;;
67819;SDS011;54618;52.018;5.576;2023-08-24T04:06:05;13.43;;;7.10;;
67819;SDS011;54618;52.018;5.576;2023-08-24T04:08:34;16.10;;;6.75;;
67819;SDS011;54618;52.018;5.576;2023-08-24T04:11:00;14.35;;;7.40;;
67819;SDS011;54618;52.018;5.576;2023-08-24T04:13:26;13.43;;;7.35;;
67819;SDS011;54618;52.018;5.576;2023-08-24T04:15:51;12.50;;;6.68;;
67819;SDS011;54618;52.018;5.576;2023-08-24T04:18:17;12.27;;;7.30;;
67819;SDS011;54618;52.018;5.576;2023-08-24T04:20:43;14.20;;;6.70;;
67819;SDS011;54618;52.018;5.576;2023-08-24T04:23:08;12.48;;;7.45;;
67819;SDS011;54618;52.018;5.576;2023-08-24T04:25:35;12.32;;;7.25;;
67819;SDS011;54618;52.018;5.576;2023-08-24T04:28:05;12.25;;;7.15;;
67819;SDS011;54618;52.018;5.576;2023-08-24T04:30:30;11.32;;;7.07;;
67819;SDS011;54618;52.018;5.576;2023-08-24T04:32:56;11.88;;;7.03;;
67819;SDS011;54618;52.018;5.576;2023-08-24T04:35:24;15.80;;;7.57;;
67819;SDS011;54618;52.018;5.576;2023-08-24T04:37:50;14.05;;;7.85;;
67819;SDS011;54618;52.018;5.576;2023-08-24T04:40:16;13.68;;;7.97;;
67819;SDS011;54618;52.018;5.576;2023-08-24T04:42:42;13.38;;;7.53;;
67819;SDS011;54618;52.018;5.576;2023-08-24T04:45:10;14.07;;;7.15;;
67819;SDS011;54618;52.018;5.576;2023-08-24T04:47:36;15.68;;;7.20;;
67819;SDS011;54618;52.018;5.576;2023-08-24T04:50:01;12.35;;;7.40;;
67819;SDS011;54618;52.018;5.576;2023-08-24T04:52:27;13.82;;;8.05;;
67819;SDS011;54618;52.018;5.576;2023-08-24T04:54:53;13.40;;;7.47;;
67819;SDS011;54618;52.018;5.576;2023-08-24T04:57:18;18.08;;;8.15;;
67819;SDS011;54618;52.018;5.576;2023-08-24T04:59:44;12.45;;;7.50;;
67819;SDS011;54618;52.018;5.576;2023-08-24T05:02:09;14.63;;;7.22;;
67819;SDS011;54618;52.018;5.576;2023-08-24T05:04:35;13.70;;;6.68;;
67819;SDS011;54618;52.018;5.576;2023-08-24T05:07:00;14.95;;;7.15;;
67819;SDS011;54618;52.018;5.576;2023-08-24T05:09:26;11.93;;;7.07;;
67819;SDS011;54618;52.018;5.576;2023-08-24T05:11:51;11.35;;;7.13;;
67819;SDS011;54618;52.018;5.576;2023-08-24T05:14:17;12.13;;;6.70;;
67819;SDS011;54618;52.018;5.576;2023-08-24T05:16:42;12.75;;;6.93;;
67819;SDS011;54618;52.018;5.576;2023-08-24T05:19:08;17.02;;;7.70;;
67819;SDS011;54618;52.018;5.576;2023-08-24T05:21:34;15.13;;;8.13;;
67819;SDS011;54618;52.018;5.576;2023-08-24T05:23:59;13.65;;;8.15;;
67819;SDS011;54618;52.018;5.576;2023-08-24T05:26:25;15.20;;;7.93;;
67819;SDS011;54618;52.018;5.576;2023-08-24T05:28:52;14.85;;;8.25;;
67819;SDS011;54618;52.018;5.576;2023-08-24T05:31:18;14.00;;;7.53;;
67819;SDS011;54618;52.018;5.576;2023-08-24T05:33:43;16.60;;;7.75;;
67819;SDS011;54618;52.018;5.576;2023-08-24T05:36:09;14.68;;;7.50;;
67819;SDS011;54618;52.018;5.576;2023-08-24T05:38:35;12.50;;;7.28;;
67819;SDS011;54618;52.018;5.576;2023-08-24T05:41:00;14.90;;;8.57;;
67819;SDS011;54618;52.018;5.576;2023-08-24T05:43:26;16.02;;;7.70;;
67819;SDS011;54618;52.018;5.576;2023-08-24T05:45:52;12.38;;;7.10;;
67819;SDS011;54618;52.018;5.576;2023-08-24T05:48:17;15.00;;;7.45;;
67819;SDS011;54618;52.018;5.576;2023-08-24T05:50:43;14.82;;;7.88;;
67819;SDS011;54618;52.018;5.576;2023-08-24T05:53:09;12.77;;;7.25;;
67819;SDS011;54618;52.018;5.576;2023-08-24T05:55:35;13.27;;;7.78;;
67819;SDS011;54618;52.018;5.576;2023-08-24T05:58:01;11.57;;;7.07;;
67819;SDS011;54618;52.018;5.576;2023-08-24T06:00:26;11.60;;;6.97;;
67819;SDS011;54618;52.018;5.576;2023-08-24T06:02:52;14.60;;;7.82;;
67819;SDS011;54618;52.018;5.576;2023-08-24T06:05:17;12.00;;;6.93;;
67819;SDS011;54618;52.018;5.576;2023-08-24T06:07:43;11.50;;;7.15;;
67819;SDS011;54618;52.018;5.576;2023-08-24T06:10:10;11.90;;;6.72;;
67819;SDS011;54618;52.018;5.576;2023-08-24T06:12:36;12.13;;;6.70;;
67819;SDS011;54618;52.018;5.576;2023-08-24T06:15:02;15.48;;;7.40;;
67819;SDS011;54618;52.018;5.576;2023-08-24T06:17:29;11.13;;;7.10;;
67819;SDS011;54618;52.018;5.576;2023-08-24T06:19:55;12.00;;;7.25;;
67819;SDS011;54618;52.018;5.576;2023-08-24T06:22:21;14.55;;;6.95;;
67819;SDS011;54618;52.018;5.576;2023-08-24T06:24:46;11.70;;;7.65;;
67819;SDS011;54618;52.018;5.576;2023-08-24T06:27:12;10.88;;;6.93;;
67819;SDS011;54618;52.018;5.576;2023-08-24T06:29:37;12.95;;;7.07;;
67819;SDS011;54618;52.018;5.576;2023-08-24T06:32:09;13.93;;;7.95;;
67819;SDS011;54618;52.018;5.576;2023-08-24T06:34:35;13.75;;;7.50;;
67819;SDS011;54618;52.018;5.576;2023-08-24T06:37:01;11.95;;;7.68;;
67819;SDS011;54618;52.018;5.576;2023-08-24T06:39:28;9.45;;;6.82;;
67819;SDS011;54618;52.018;5.576;2023-08-24T06:41:54;12.10;;;7.95;;
67819;SDS011;54618;52.018;5.576;2023-08-24T06:44:19;14.15;;;8.45;;
67819;SDS011;54618;52.018;5.576;2023-08-24T06:46:45;17.77;;;8.63;;
67819;SDS011;54618;52.018;5.576;2023-08-24T06:49:11;14.80;;;8.05;;
67819;SDS011;54618;52.018;5.576;2023-08-24T06:51:37;11.90;;;8.35;;
67819;SDS011;54618;52.018;5.576;2023-08-24T06:54:06;18.45;;;9.30;;
67819;SDS011;54618;52.018;5.576;2023-08-24T06:56:32;14.18;;;8.05;;
67819;SDS011;54618;52.018;5.576;2023-08-24T06:58:57;16.80;;;8.02;;
67819;SDS011;54618;52.018;5.576;2023-08-24T07:01:23;17.63;;;9.25;;
67819;SDS011;54618;52.018;5.576;2023-08-24T07:03:50;16.17;;;9.52;;
67819;SDS011;54618;52.018;5.576;2023-08-24T07:06:16;17.98;;;10.23;;
67819;SDS011;54618;52.018;5.576;2023-08-24T07:08:41;22.45;;;9.60;;
67819;SDS011;54618;52.018;5.576;2023-08-24T07:11:10;14.55;;;9.35;;
67819;SDS011;54618;52.018;5.576;2023-08-24T07:13:39;14.65;;;9.63;;
67819;SDS011;54618;52.018;5.576;2023-08-24T07:16:04;17.45;;;8.95;;
67819;SDS011;54618;52.018;5.576;2023-08-24T07:18:30;12.25;;;9.10;;
67819;SDS011;54618;52.018;5.576;2023-08-24T07:20:56;15.07;;;9.07;;
67819;SDS011;54618;52.018;5.576;2023-08-24T07:23:21;15.55;;;9.27;;
67819;SDS011;54618;52.018;5.576;2023-08-24T07:25:47;16.35;;;9.18;;
67819;SDS011;54618;52.018;5.576;2023-08-24T07:28:13;17.38;;;9.57;;
67819;SDS011;54618;52.018;5.576;2023-08-24T07:30:39;15.75;;;9.02;;
67819;SDS011;54618;52.018;5.576;2023-08-24T07:33:04;15.23;;;8.85;;
67819;SDS011;54618;52.018;5.576;2023-08-24T07:35:30;17.27;;;8.13;;
67819;SDS011;54618;52.018;5.576;2023-08-24T07:37:57;14.45;;;8.80;;
67819;SDS011;54618;52.018;5.576;2023-08-24T07:40:22;15.32;;;9.30;;
67819;SDS011;54618;52.018;5.576;2023-08-24T07:42:49;16.73;;;9.18;;
67819;SDS011;54618;52.018;5.576;2023-08-24T07:45:18;16.15;;;8.85;;
67819;SDS011;54618;52.018;5.576;2023-08-24T07:47:43;12.85;;;8.50;;
67819;SDS011;54618;52.018;5.576;2023-08-24T07:50:09;11.20;;;7.55;;
67819;SDS011;54618;52.018;5.576;2023-08-24T07:52:39;14.05;;;7.70;;
67819;SDS011;54618;52.018;5.576;2023-08-24T07:55:05;12.30;;;7.43;;
67819;SDS011;54618;52.018;5.576;2023-08-24T07:57:32;12.60;;;8.27;;
67819;SDS011;54618;52.018;5.576;2023-08-24T08:00:01;13.52;;;8.93;;
67819;SDS011;54618;52.018;5.576;2023-08-24T08:02:29;12.70;;;8.05;;
67819;SDS011;54618;52.018;5.576;2023-08-24T08:04:57;11.88;;;7.43;;
67819;SDS011;54618;52.018;5.576;2023-08-24T08:07:24;17.30;;;8.13;;
67819;SDS011;54618;52.018;5.576;2023-08-24T08:09:51;14.45;;;7.90;;
67819;SDS011;54618;52.018;5.576;2023-08-24T08:12:16;16.02;;;8.10;;
67819;SDS011;54618;52.018;5.576;2023-08-24T08:14:42;11.55;;;7.65;;
67819;SDS011;54618;52.018;5.576;2023-08-24T08:17:11;19.10;;;8.07;;
67819;SDS011;54618;52.018;5.576;2023-08-24T08:19:36;12.32;;;7.47;;
67819;SDS011;54618;52.018;5.576;2023-08-24T08:22:03;13.98;;;7.40;;
67819;SDS011;54618;52.018;5.576;2023-08-24T08:24:29;13.20;;;6.90;;
67819;SDS011;54618;52.018;5.576;2023-08-24T08:26:54;12.02;;;7.85;;
67819;SDS011;54618;52.018;5.576;2023-08-24T08:29:20;12.35;;;7.65;;
67819;SDS011;54618;52.018;5.576;2023-08-24T08:31:46;10.95;;;7.50;;
67819;SDS011;54618;52.018;5.576;2023-08-24T08:34:11;12.60;;;7.38;;
67819;SDS011;54618;52.018;5.576;2023-08-24T08:36:37;15.18;;;7.97;;
67819;SDS011;54618;52.018;5.576;2023-08-24T08:39:04;13.55;;;7.28;;
67819;SDS011;54618;52.018;5.576;2023-08-24T08:41:33;12.10;;;7.20;;
67819;SDS011;54618;52.018;5.576;2023-08-24T08:44:10;12.95;;;7.80;;
67819;SDS011;54618;52.018;5.576;2023-08-24T08:46:39;13.30;;;8.07;;
67819;SDS011;54618;52.018;5.576;2023-08-24T08:49:06;14.32;;;7.65;;
67819;SDS011;54618;52.018;5.576;2023-08-24T08:51:42;11.85;;;8.10;;
67819;SDS011;54618;52.018;5.576;2023-08-24T08:54:10;11.63;;;8.07;;
67819;SDS011;54618;52.018;5.576;2023-08-24T08:56:37;15.90;;;8.63;;
67819;SDS011;54618;52.018;5.576;2023-08-24T08:59:07;13.77;;;8.47;;
67819;SDS011;54618;52.018;5.576;2023-08-24T09:01:36;13.45;;;8.20;;
67819;SDS011;54618;52.018;5.576;2023-08-24T09:04:03;12.00;;;7.43;;
67819;SDS011;54618;52.018;5.576;2023-08-24T09:06:33;13.43;;;8.48;;
67819;SDS011;54618;52.018;5.576;2023-08-24T09:08:59;12.00;;;7.90;;
67819;SDS011;54618;52.018;5.576;2023-08-24T09:11:25;13.20;;;8.15;;
67819;SDS011;54618;52.018;5.576;2023-08-24T09:13:51;17.92;;;8.50;;
67819;SDS011;54618;52.018;5.576;2023-08-24T09:16:17;14.48;;;8.77;;
67819;SDS011;54618;52.018;5.576;2023-08-24T09:18:43;12.68;;;8.55;;
67819;SDS011;54618;52.018;5.576;2023-08-24T09:21:12;15.65;;;8.75;;
67819;SDS011;54618;52.018;5.576;2023-08-24T09:23:45;13.52;;;8.48;;
67819;SDS011;54618;52.018;5.576;2023-08-24T09:26:27;24.08;;;8.70;;
67819;SDS011;54618;52.018;5.576;2023-08-24T09:28:54;17.92;;;9.00;;
67819;SDS011;54618;52.018;5.576;2023-08-24T09:31:20;13.80;;;7.85;;
67819;SDS011;54618;52.018;5.576;2023-08-24T09:34:05;12.93;;;7.47;;
67819;SDS011;54618;52.018;5.576;2023-08-24T09:36:34;15.85;;;7.75;;
67819;SDS011;54618;52.018;5.576;2023-08-24T09:39:01;13.20;;;7.20;;
67819;SDS011;54618;52.018;5.576;2023-08-24T09:41:46;13.87;;;7.73;;
67819;SDS011;54618;52.018;5.576;2023-08-24T09:44:16;14.48;;;6.97;;
67819;SDS011;54618;52.018;5.576;2023-08-24T09:46:42;14.68;;;8.43;;
67819;SDS011;54618;52.018;5.576;2023-08-24T09:49:09;13.75;;;7.75;;
67819;SDS011;54618;52.018;5.576;2023-08-24T09:51:37;15.30;;;7.82;;
67819;SDS011;54618;52.018;5.576;2023-08-24T09:54:07;14.50;;;7.80;;
67819;SDS011;54618;52.018;5.576;2023-08-24T09:56:41;12.82;;;7.22;;
67819;SDS011;54618;52.018;5.576;2023-08-24T09:59:14;12.43;;;7.23;;
67819;SDS011;54618;52.018;5.576;2023-08-24T10:01:44;14.90;;;7.45;;
67819;SDS011;54618;52.018;5.576;2023-08-24T10:04:12;14.05;;;6.75;;
67819;SDS011;54618;52.018;5.576;2023-08-24T10:06:40;11.82;;;7.00;;
67819;SDS011;54618;52.018;5.576;2023-08-24T10:09:07;13.77;;;6.80;;
67819;SDS011;54618;52.018;5.576;2023-08-24T10:11:42;17.88;;;7.45;;
67819;SDS011;54618;52.018;5.576;2023-08-24T10:16:51;75.70;;;10.55;;
67819;SDS011;54618;52.018;5.576;2023-08-24T10:19:18;29.90;;;9.60;;
67819;SDS011;54618;52.018;5.576;2023-08-24T10:21:46;20.52;;;8.15;;
67819;SDS011;54618;52.018;5.576;2023-08-24T10:24:12;34.17;;;8.68;;
67819;SDS011;54618;52.018;5.576;2023-08-24T10:26:39;22.55;;;8.88;;
67819;SDS011;54618;52.018;5.576;2023-08-24T10:29:06;21.52;;;8.40;;
67819;SDS011;54618;52.018;5.576;2023-08-24T10:31:32;17.08;;;8.27;;
67819;SDS011;54618;52.018;5.576;2023-08-24T10:33:59;14.45;;;7.88;;
67819;SDS011;54618;52.018;5.576;2023-08-24T10:36:26;17.25;;;8.13;;
67819;SDS011;54618;52.018;5.576;2023-08-24T10:38:55;18.80;;;7.85;;
67819;SDS011;54618;52.018;5.576;2023-08-24T10:41:25;16.10;;;8.00;;
67819;SDS011;54618;52.018;5.576;2023-08-24T10:43:51;18.13;;;9.27;;
67819;SDS011;54618;52.018;5.576;2023-08-24T10:46:28;16.48;;;8.02;;
67819;SDS011;54618;52.018;5.576;2023-08-24T10:48:59;19.42;;;8.90;;
67819;SDS011;54618;52.018;5.576;2023-08-24T10:51:28;16.52;;;8.80;;
67819;SDS011;54618;52.018;5.576;2023-08-24T10:53:56;17.02;;;8.93;;
67819;SDS011;54618;52.018;5.576;2023-08-24T10:56:36;15.73;;;9.68;;
67819;SDS011;54618;52.018;5.576;2023-08-24T10:59:09;15.82;;;9.13;;
67819;SDS011;54618;52.018;5.576;2023-08-24T11:01:42;16.00;;;10.05;;
67819;SDS011;54618;52.018;5.576;2023-08-24T11:04:19;18.20;;;9.00;;
67819;SDS011;54618;52.018;5.576;2023-08-24T11:06:52;15.70;;;10.40;;
67819;SDS011;54618;52.018;5.576;2023-08-24T11:09:19;16.52;;;9.80;;
67819;SDS011;54618;52.018;5.576;2023-08-24T11:12:01;16.80;;;10.55;;
67819;SDS011;54618;52.018;5.576;2023-08-24T11:14:28;16.05;;;10.98;;
67819;SDS011;54618;52.018;5.576;2023-08-24T11:17:17;16.58;;;10.73;;
67819;SDS011;54618;52.018;5.576;2023-08-24T11:19:51;19.60;;;11.18;;
67819;SDS011;54618;52.018;5.576;2023-08-24T11:22:17;18.08;;;11.35;;
67819;SDS011;54618;52.018;5.576;2023-08-24T11:24:44;14.55;;;9.52;;
67819;SDS011;54618;52.018;5.576;2023-08-24T11:27:10;17.10;;;10.90;;
67819;SDS011;54618;52.018;5.576;2023-08-24T11:29:35;16.67;;;9.70;;
67819;SDS011;54618;52.018;5.576;2023-08-24T11:32:01;18.05;;;10.73;;
67819;SDS011;54618;52.018;5.576;2023-08-24T11:34:27;22.40;;;11.38;;
67819;SDS011;54618;52.018;5.576;2023-08-24T11:36:54;16.98;;;11.40;;
67819;SDS011;54618;52.018;5.576;2023-08-24T11:39:20;23.42;;;10.98;;
67819;SDS011;54618;52.018;5.576;2023-08-24T11:44:25;21.38;;;11.02;;
67819;SDS011;54618;52.018;5.576;2023-08-24T11:46:51;16.42;;;10.88;;
67819;SDS011;54618;52.018;5.576;2023-08-24T11:49:16;21.23;;;11.52;;
67819;SDS011;54618;52.018;5.576;2023-08-24T11:51:42;20.77;;;11.65;;
67819;SDS011;54618;52.018;5.576;2023-08-24T11:54:11;22.15;;;11.70;;
67819;SDS011;54618;52.018;5.576;2023-08-24T11:56:42;19.45;;;11.65;;
67819;SDS011;54618;52.018;5.576;2023-08-24T11:59:12;19.80;;;11.90;;
67819;SDS011;54618;52.018;5.576;2023-08-24T12:01:43;19.77;;;12.50;;
67819;SDS011;54618;52.018;5.576;2023-08-24T12:04:11;17.35;;;10.25;;
67819;SDS011;54618;52.018;5.576;2023-08-24T12:06:37;20.48;;;11.75;;
67819;SDS011;54618;52.018;5.576;2023-08-24T12:09:06;21.25;;;11.75;;
67819;SDS011;54618;52.018;5.576;2023-08-24T12:11:35;24.27;;;12.38;;
67819;SDS011;54618;52.018;5.576;2023-08-24T12:14:02;17.95;;;11.25;;
67819;SDS011;54618;52.018;5.576;2023-08-24T12:16:30;18.98;;;10.43;;
67819;SDS011;54618;52.018;5.576;2023-08-24T12:18:58;15.93;;;11.00;;
67819;SDS011;54618;52.018;5.576;2023-08-24T12:21:25;20.52;;;11.40;;
67819;SDS011;54618;52.018;5.576;2023-08-24T12:23:58;21.77;;;11.60;;
67819;SDS011;54618;52.018;5.576;2023-08-24T12:26:25;19.67;;;10.75;;
67819;SDS011;54618;52.018;5.576;2023-08-24T12:28:52;15.57;;;10.85;;
67819;SDS011;54618;52.018;5.576;2023-08-24T12:31:18;17.05;;;10.23;;
67819;SDS011;54618;52.018;5.576;2023-08-24T12:34:04;18.15;;;10.10;;
67819;SDS011;54618;52.018;5.576;2023-08-24T12:36:31;21.77;;;10.32;;
67819;SDS011;54618;52.018;5.576;2023-08-24T12:38:58;15.38;;;9.40;;
67819;SDS011;54618;52.018;5.576;2023-08-24T12:41:24;17.15;;;9.68;;
67819;SDS011;54618;52.018;5.576;2023-08-24T12:43:50;18.77;;;9.65;;
67819;SDS011;54618;52.018;5.576;2023-08-24T12:46:17;20.85;;;10.27;;
67819;SDS011;54618;52.018;5.576;2023-08-24T12:48:42;16.40;;;9.27;;
67819;SDS011;54618;52.018;5.576;2023-08-24T12:51:11;15.85;;;9.07;;
67819;SDS011;54618;52.018;5.576;2023-08-24T12:53:37;19.60;;;9.02;;
67819;SDS011;54618;52.018;5.576;2023-08-24T12:56:05;14.52;;;8.60;;
67819;SDS011;54618;52.018;5.576;2023-08-24T12:58:31;18.45;;;9.02;;
67819;SDS011;54618;52.018;5.576;2023-08-24T13:00:56;15.85;;;7.95;;
67819;SDS011;54618;52.018;5.576;2023-08-24T13:03:22;21.05;;;9.13;;
67819;SDS011;54618;52.018;5.576;2023-08-24T13:05:48;15.70;;;8.20;;
67819;SDS011;54618;52.018;5.576;2023-08-24T13:08:13;21.25;;;8.88;;
67819;SDS011;54618;52.018;5.576;2023-08-24T13:10:42;19.08;;;8.35;;
67819;SDS011;54618;52.018;5.576;2023-08-24T13:13:08;15.77;;;7.35;;
67819;SDS011;54618;52.018;5.576;2023-08-24T13:15:42;13.20;;;7.38;;
67819;SDS011;54618;52.018;5.576;2023-08-24T13:18:11;12.40;;;7.15;;
67819;SDS011;54618;52.018;5.576;2023-08-24T13:20:36;13.90;;;7.57;;
67819;SDS011;54618;52.018;5.576;2023-08-24T13:23:02;14.82;;;7.03;;
67819;SDS011;54618;52.018;5.576;2023-08-24T13:25:28;17.65;;;8.60;;
67819;SDS011;54618;52.018;5.576;2023-08-24T13:27:53;16.58;;;8.48;;
67819;SDS011;54618;52.018;5.576;2023-08-24T13:30:21;17.55;;;8.88;;
67819;SDS011;54618;52.018;5.576;2023-08-24T13:32:46;12.57;;;7.72;;
67819;SDS011;54618;52.018;5.576;2023-08-24T13:35:12;13.75;;;8.60;;
67819;SDS011;54618;52.018;5.576;2023-08-24T13:37:38;12.10;;;8.02;;
67819;SDS011;54618;52.018;5.576;2023-08-24T13:40:06;14.38;;;8.07;;
67819;SDS011;54618;52.018;5.576;2023-08-24T13:42:33;11.13;;;6.82;;
67819;SDS011;54618;52.018;5.576;2023-08-24T13:44:58;13.43;;;8.85;;
67819;SDS011;54618;52.018;5.576;2023-08-24T13:47:24;13.73;;;8.30;;
67819;SDS011;54618;52.018;5.576;2023-08-24T13:49:49;15.48;;;8.02;;
67819;SDS011;54618;52.018;5.576;2023-08-24T13:52:15;15.45;;;9.20;;
67819;SDS011;54618;52.018;5.576;2023-08-24T13:54:43;15.98;;;9.82;;
67819;SDS011;54618;52.018;5.576;2023-08-24T13:57:09;16.63;;;9.10;;
67819;SDS011;54618;52.018;5.576;2023-08-24T13:59:35;17.25;;;9.45;;
67819;SDS011;54618;52.018;5.576;2023-08-24T14:02:00;15.82;;;9.35;;
67819;SDS011;54618;52.018;5.576;2023-08-24T14:04:26;15.73;;;10.13;;
67819;SDS011;54618;52.018;5.576;2023-08-24T14:06:51;15.35;;;10.48;;
67819;SDS011;54618;52.018;5.576;2023-08-24T14:09:17;19.75;;;11.18;;
67819;SDS011;54618;52.018;5.576;2023-08-24T14:11:42;18.92;;;11.32;;
67819;SDS011;54618;52.018;5.576;2023-08-24T14:14:11;21.23;;;12.40;;
67819;SDS011;54618;52.018;5.576;2023-08-24T14:16:37;18.45;;;11.10;;
67819;SDS011;54618;52.018;5.576;2023-08-24T14:19:02;16.02;;;10.32;;
67819;SDS011;54618;52.018;5.576;2023-08-24T14:21:28;14.27;;;8.63;;
67819;SDS011;54618;52.018;5.576;2023-08-24T14:23:53;14.55;;;8.90;;
67819;SDS011;54618;52.018;5.576;2023-08-24T14:26:19;13.77;;;7.45;;
67819;SDS011;54618;52.018;5.576;2023-08-24T14:28:51;14.55;;;8.50;;
67819;SDS011;54618;52.018;5.576;2023-08-24T14:31:19;14.15;;;7.63;;
67819;SDS011;54618;52.018;5.576;2023-08-24T14:33:46;15.90;;;7.68;;
67819;SDS011;54618;52.018;5.576;2023-08-24T14:36:11;10.93;;;7.80;;
67819;SDS011;54618;52.018;5.576;2023-08-24T14:38:40;14.25;;;8.05;;
67819;SDS011;54618;52.018;5.576;2023-08-24T14:41:07;10.68;;;7.38;;
67819;SDS011;54618;52.018;5.576;2023-08-24T14:43:36;13.50;;;7.70;;
67819;SDS011;54618;52.018;5.576;2023-08-24T14:46:02;11.23;;;6.53;;
67819;SDS011;54618;52.018;5.576;2023-08-24T14:48:28;14.48;;;7.78;;
67819;SDS011;54618;52.018;5.576;2023-08-24T14:50:54;12.90;;;7.40;;